sensor_id;sensor_type;location;lat;lon;timestamp;P1;durP1;ratioP1;P2;durP2;ratioP2
61907;SDS011;47864;52.526;19.672;2023-01-08T00:00:50;153.70;;;43.83;;
61907;SDS011;47864;52.526;19.672;2023-01-08T00:02:52;220.68;;;44.33;;
61907;SDS011;47864;52.526;19.672;2023-01-08T00:04:54;238.23;;;42.20;;
61907;SDS011;47864;52.526;19.672;2023-01-08T00:06:56;226.13;;;44.15;;
61907;SDS011;47864;52.526;19.672;2023-01-08T00:08:58;271.65;;;43.55;;
61907;SDS011;47864;52.526;19.672;2023-01-08T00:11:00;209.80;;;40.58;;
61907;SDS011;47864;52.526;19.672;2023-01-08T00:13:02;248.07;;;43.22;;
61907;SDS011;47864;52.526;19.672;2023-01-08T00:15:04;311.23;;;42.73;;
61907;SDS011;47864;52.526;19.672;2023-01-08T00:17:07;241.68;;;44.58;;
61907;SDS011;47864;52.526;19.672;2023-01-08T00:19:10;277.38;;;46.55;;
61907;SDS011;47864;52.526;19.672;2023-01-08T00:21:13;241.07;;;44.85;;
61907;SDS011;47864;52.526;19.672;2023-01-08T00:23:15;233.05;;;46.25;;
61907;SDS011;47864;52.526;19.672;2023-01-08T00:25:18;238.65;;;46.00;;
61907;SDS011;47864;52.526;19.672;2023-01-08T00:27:21;204.23;;;43.10;;
61907;SDS011;47864;52.526;19.672;2023-01-08T00:29:23;244.57;;;46.22;;
61907;SDS011;47864;52.526;19.672;2023-01-08T00:31:24;165.90;;;45.13;;
61907;SDS011;47864;52.526;19.672;2023-01-08T00:33:26;217.13;;;45.83;;
61907;SDS011;47864;52.526;19.672;2023-01-08T00:35:28;182.02;;;46.30;;
61907;SDS011;47864;52.526;19.672;2023-01-08T00:37:30;139.23;;;45.97;;
61907;SDS011;47864;52.526;19.672;2023-01-08T00:39:32;139.20;;;46.05;;
61907;SDS011;47864;52.526;19.672;2023-01-08T00:41:34;119.65;;;44.95;;
61907;SDS011;47864;52.526;19.672;2023-01-08T00:43:35;115.78;;;44.38;;
61907;SDS011;47864;52.526;19.672;2023-01-08T00:45:38;115.00;;;43.75;;
61907;SDS011;47864;52.526;19.672;2023-01-08T00:47:39;111.53;;;42.63;;
61907;SDS011;47864;52.526;19.672;2023-01-08T00:49:41;107.63;;;45.08;;
61907;SDS011;47864;52.526;19.672;2023-01-08T00:51:43;101.38;;;41.58;;
61907;SDS011;47864;52.526;19.672;2023-01-08T00:53:45;109.65;;;44.53;;
61907;SDS011;47864;52.526;19.672;2023-01-08T00:55:47;99.35;;;40.90;;
61907;SDS011;47864;52.526;19.672;2023-01-08T00:57:48;106.38;;;41.67;;
61907;SDS011;47864;52.526;19.672;2023-01-08T00:59:50;100.65;;;43.25;;
61907;SDS011;47864;52.526;19.672;2023-01-08T01:01:52;100.88;;;43.05;;
61907;SDS011;47864;52.526;19.672;2023-01-08T01:03:54;97.32;;;42.22;;
61907;SDS011;47864;52.526;19.672;2023-01-08T01:06:03;102.32;;;41.35;;
61907;SDS011;47864;52.526;19.672;2023-01-08T01:08:06;105.05;;;44.72;;
61907;SDS011;47864;52.526;19.672;2023-01-08T01:10:08;103.63;;;43.17;;
61907;SDS011;47864;52.526;19.672;2023-01-08T01:12:10;99.75;;;42.20;;
61907;SDS011;47864;52.526;19.672;2023-01-08T01:14:13;93.32;;;42.22;;
61907;SDS011;47864;52.526;19.672;2023-01-08T01:16:15;109.47;;;45.00;;
61907;SDS011;47864;52.526;19.672;2023-01-08T01:18:17;110.38;;;43.13;;
61907;SDS011;47864;52.526;19.672;2023-01-08T01:20:18;104.65;;;44.53;;
61907;SDS011;47864;52.526;19.672;2023-01-08T01:22:20;113.75;;;44.03;;
61907;SDS011;47864;52.526;19.672;2023-01-08T01:24:22;102.20;;;44.30;;
61907;SDS011;47864;52.526;19.672;2023-01-08T01:26:25;103.00;;;43.83;;
61907;SDS011;47864;52.526;19.672;2023-01-08T01:28:27;92.67;;;41.00;;
61907;SDS011;47864;52.526;19.672;2023-01-08T01:30:29;97.38;;;44.63;;
61907;SDS011;47864;52.526;19.672;2023-01-08T01:32:30;99.60;;;41.15;;
61907;SDS011;47864;52.526;19.672;2023-01-08T01:34:33;89.70;;;41.17;;
61907;SDS011;47864;52.526;19.672;2023-01-08T01:36:35;89.38;;;41.08;;
61907;SDS011;47864;52.526;19.672;2023-01-08T01:38:37;102.95;;;42.70;;
61907;SDS011;47864;52.526;19.672;2023-01-08T01:40:42;83.35;;;39.35;;
61907;SDS011;47864;52.526;19.672;2023-01-08T01:42:44;91.28;;;40.88;;
61907;SDS011;47864;52.526;19.672;2023-01-08T01:44:46;96.80;;;43.55;;
61907;SDS011;47864;52.526;19.672;2023-01-08T01:46:48;97.57;;;42.50;;
61907;SDS011;47864;52.526;19.672;2023-01-08T01:48:51;90.18;;;40.25;;
61907;SDS011;47864;52.526;19.672;2023-01-08T01:50:56;86.25;;;41.15;;
61907;SDS011;47864;52.526;19.672;2023-01-08T01:55:17;89.90;;;39.22;;
61907;SDS011;47864;52.526;19.672;2023-01-08T01:57:19;90.22;;;41.92;;
61907;SDS011;47864;52.526;19.672;2023-01-08T01:59:21;88.47;;;38.20;;
61907;SDS011;47864;52.526;19.672;2023-01-08T02:01:23;92.55;;;40.03;;
61907;SDS011;47864;52.526;19.672;2023-01-08T02:03:28;94.25;;;40.80;;
61907;SDS011;47864;52.526;19.672;2023-01-08T02:05:49;85.40;;;40.63;;
61907;SDS011;47864;52.526;19.672;2023-01-08T02:08:03;82.65;;;38.47;;
61907;SDS011;47864;52.526;19.672;2023-01-08T02:10:19;89.80;;;38.75;;
61907;SDS011;47864;52.526;19.672;2023-01-08T02:12:31;91.20;;;40.85;;
61907;SDS011;47864;52.526;19.672;2023-01-08T02:14:58;87.43;;;39.85;;
61907;SDS011;47864;52.526;19.672;2023-01-08T02:17:05;91.10;;;39.72;;
61907;SDS011;47864;52.526;19.672;2023-01-08T02:22:00;101.50;;;39.95;;
61907;SDS011;47864;52.526;19.672;2023-01-08T02:28:35;88.68;;;37.40;;
61907;SDS011;47864;52.526;19.672;2023-01-08T02:30:41;84.55;;;37.92;;
61907;SDS011;47864;52.526;19.672;2023-01-08T02:32:44;88.25;;;37.03;;
61907;SDS011;47864;52.526;19.672;2023-01-08T02:34:46;85.90;;;36.80;;
61907;SDS011;47864;52.526;19.672;2023-01-08T02:36:51;84.55;;;35.45;;
61907;SDS011;47864;52.526;19.672;2023-01-08T02:39:00;80.28;;;35.53;;
61907;SDS011;47864;52.526;19.672;2023-01-08T02:41:06;84.70;;;34.15;;
61907;SDS011;47864;52.526;19.672;2023-01-08T02:43:12;95.22;;;37.30;;
61907;SDS011;47864;52.526;19.672;2023-01-08T02:45:27;88.10;;;35.97;;
61907;SDS011;47864;52.526;19.672;2023-01-08T02:47:32;87.70;;;35.60;;
61907;SDS011;47864;52.526;19.672;2023-01-08T02:49:39;94.80;;;39.67;;
61907;SDS011;47864;52.526;19.672;2023-01-08T02:51:48;81.82;;;33.30;;
61907;SDS011;47864;52.526;19.672;2023-01-08T02:53:56;92.95;;;33.63;;
61907;SDS011;47864;52.526;19.672;2023-01-08T02:56:03;92.85;;;36.28;;
61907;SDS011;47864;52.526;19.672;2023-01-08T02:58:08;94.05;;;35.50;;
61907;SDS011;47864;52.526;19.672;2023-01-08T03:00:12;95.63;;;34.35;;
61907;SDS011;47864;52.526;19.672;2023-01-08T03:02:14;89.38;;;32.67;;
61907;SDS011;47864;52.526;19.672;2023-01-08T03:04:18;91.47;;;31.77;;
61907;SDS011;47864;52.526;19.672;2023-01-08T03:06:22;112.38;;;36.85;;
61907;SDS011;47864;52.526;19.672;2023-01-08T03:08:26;126.03;;;43.55;;
61907;SDS011;47864;52.526;19.672;2023-01-08T03:10:29;120.13;;;40.33;;
61907;SDS011;47864;52.526;19.672;2023-01-08T03:12:52;121.80;;;40.25;;
61907;SDS011;47864;52.526;19.672;2023-01-08T03:14:57;98.57;;;33.67;;
61907;SDS011;47864;52.526;19.672;2023-01-08T03:17:13;92.30;;;31.83;;
61907;SDS011;47864;52.526;19.672;2023-01-08T03:19:25;93.68;;;32.85;;
61907;SDS011;47864;52.526;19.672;2023-01-08T03:21:28;88.50;;;30.63;;
61907;SDS011;47864;52.526;19.672;2023-01-08T03:25:38;84.68;;;30.52;;
61907;SDS011;47864;52.526;19.672;2023-01-08T03:27:48;74.57;;;27.80;;
61907;SDS011;47864;52.526;19.672;2023-01-08T03:29:55;87.25;;;30.25;;
61907;SDS011;47864;52.526;19.672;2023-01-08T03:32:01;87.82;;;30.30;;
61907;SDS011;47864;52.526;19.672;2023-01-08T03:34:06;81.03;;;31.33;;
61907;SDS011;47864;52.526;19.672;2023-01-08T03:36:08;87.68;;;30.35;;
61907;SDS011;47864;52.526;19.672;2023-01-08T03:38:28;67.82;;;26.90;;
61907;SDS011;47864;52.526;19.672;2023-01-08T03:40:34;71.00;;;27.45;;
61907;SDS011;47864;52.526;19.672;2023-01-08T03:42:40;73.57;;;26.38;;
61907;SDS011;47864;52.526;19.672;2023-01-08T03:44:42;77.70;;;28.13;;
61907;SDS011;47864;52.526;19.672;2023-01-08T03:46:46;71.35;;;27.00;;
61907;SDS011;47864;52.526;19.672;2023-01-08T03:48:51;71.57;;;27.10;;
61907;SDS011;47864;52.526;19.672;2023-01-08T03:50:53;68.00;;;27.20;;
61907;SDS011;47864;52.526;19.672;2023-01-08T03:52:55;78.75;;;28.52;;
61907;SDS011;47864;52.526;19.672;2023-01-08T03:54:59;77.85;;;29.92;;
61907;SDS011;47864;52.526;19.672;2023-01-08T03:57:01;65.90;;;26.42;;
61907;SDS011;47864;52.526;19.672;2023-01-08T03:59:03;73.78;;;26.33;;
61907;SDS011;47864;52.526;19.672;2023-01-08T04:01:06;67.90;;;25.75;;
61907;SDS011;47864;52.526;19.672;2023-01-08T04:03:07;75.43;;;27.17;;
61907;SDS011;47864;52.526;19.672;2023-01-08T04:05:09;74.78;;;24.65;;
61907;SDS011;47864;52.526;19.672;2023-01-08T04:07:11;68.50;;;26.38;;
61907;SDS011;47864;52.526;19.672;2023-01-08T04:09:13;71.57;;;26.05;;
61907;SDS011;47864;52.526;19.672;2023-01-08T04:11:15;79.88;;;28.02;;
61907;SDS011;47864;52.526;19.672;2023-01-08T04:13:17;84.47;;;27.90;;
61907;SDS011;47864;52.526;19.672;2023-01-08T04:15:19;75.55;;;26.77;;
61907;SDS011;47864;52.526;19.672;2023-01-08T04:17:21;68.30;;;25.65;;
61907;SDS011;47864;52.526;19.672;2023-01-08T04:19:22;77.85;;;27.65;;
61907;SDS011;47864;52.526;19.672;2023-01-08T04:21:24;86.78;;;27.92;;
61907;SDS011;47864;52.526;19.672;2023-01-08T04:23:26;80.70;;;28.05;;
61907;SDS011;47864;52.526;19.672;2023-01-08T04:25:28;76.70;;;27.60;;
61907;SDS011;47864;52.526;19.672;2023-01-08T04:27:30;71.88;;;25.48;;
61907;SDS011;47864;52.526;19.672;2023-01-08T04:29:31;72.43;;;25.08;;
61907;SDS011;47864;52.526;19.672;2023-01-08T04:31:33;74.68;;;26.63;;
61907;SDS011;47864;52.526;19.672;2023-01-08T04:33:35;75.50;;;26.00;;
61907;SDS011;47864;52.526;19.672;2023-01-08T04:35:37;80.05;;;26.33;;
61907;SDS011;47864;52.526;19.672;2023-01-08T04:37:38;69.20;;;24.45;;
61907;SDS011;47864;52.526;19.672;2023-01-08T04:39:40;71.80;;;26.50;;
61907;SDS011;47864;52.526;19.672;2023-01-08T04:41:42;69.85;;;24.08;;
61907;SDS011;47864;52.526;19.672;2023-01-08T04:43:44;74.90;;;26.38;;
61907;SDS011;47864;52.526;19.672;2023-01-08T04:45:46;79.28;;;25.88;;
61907;SDS011;47864;52.526;19.672;2023-01-08T04:47:47;74.45;;;26.40;;
61907;SDS011;47864;52.526;19.672;2023-01-08T04:49:55;80.60;;;26.75;;
61907;SDS011;47864;52.526;19.672;2023-01-08T04:51:57;72.25;;;25.98;;
61907;SDS011;47864;52.526;19.672;2023-01-08T04:53:58;72.07;;;24.98;;
61907;SDS011;47864;52.526;19.672;2023-01-08T04:56:06;69.07;;;25.15;;
61907;SDS011;47864;52.526;19.672;2023-01-08T04:58:11;66.28;;;25.85;;
61907;SDS011;47864;52.526;19.672;2023-01-08T05:00:13;85.25;;;28.65;;
61907;SDS011;47864;52.526;19.672;2023-01-08T05:02:15;72.60;;;26.85;;
61907;SDS011;47864;52.526;19.672;2023-01-08T05:04:17;70.97;;;26.60;;
61907;SDS011;47864;52.526;19.672;2023-01-08T05:06:18;74.35;;;26.88;;
61907;SDS011;47864;52.526;19.672;2023-01-08T05:08:20;75.10;;;26.75;;
61907;SDS011;47864;52.526;19.672;2023-01-08T05:10:22;73.70;;;26.58;;
61907;SDS011;47864;52.526;19.672;2023-01-08T05:12:24;75.15;;;26.75;;
61907;SDS011;47864;52.526;19.672;2023-01-08T05:14:26;74.43;;;27.38;;
61907;SDS011;47864;52.526;19.672;2023-01-08T05:16:28;84.20;;;27.75;;
61907;SDS011;47864;52.526;19.672;2023-01-08T05:18:29;70.43;;;27.08;;
61907;SDS011;47864;52.526;19.672;2023-01-08T05:20:32;83.32;;;30.27;;
61907;SDS011;47864;52.526;19.672;2023-01-08T05:22:34;76.07;;;26.48;;
61907;SDS011;47864;52.526;19.672;2023-01-08T05:24:36;69.65;;;26.38;;
61907;SDS011;47864;52.526;19.672;2023-01-08T05:26:38;71.70;;;27.25;;
61907;SDS011;47864;52.526;19.672;2023-01-08T05:28:40;68.53;;;25.48;;
61907;SDS011;47864;52.526;19.672;2023-01-08T05:30:41;65.75;;;23.90;;
61907;SDS011;47864;52.526;19.672;2023-01-08T05:32:43;72.70;;;24.92;;
61907;SDS011;47864;52.526;19.672;2023-01-08T05:34:45;67.13;;;23.55;;
61907;SDS011;47864;52.526;19.672;2023-01-08T05:36:47;75.82;;;26.33;;
61907;SDS011;47864;52.526;19.672;2023-01-08T05:38:49;69.68;;;25.38;;
61907;SDS011;47864;52.526;19.672;2023-01-08T05:40:51;61.90;;;25.25;;
61907;SDS011;47864;52.526;19.672;2023-01-08T05:42:53;57.65;;;23.98;;
61907;SDS011;47864;52.526;19.672;2023-01-08T05:44:55;58.38;;;24.67;;
61907;SDS011;47864;52.526;19.672;2023-01-08T05:46:57;63.42;;;24.02;;
61907;SDS011;47864;52.526;19.672;2023-01-08T05:48:59;63.50;;;23.85;;
61907;SDS011;47864;52.526;19.672;2023-01-08T05:51:01;65.80;;;24.40;;
61907;SDS011;47864;52.526;19.672;2023-01-08T05:53:07;59.75;;;24.58;;
61907;SDS011;47864;52.526;19.672;2023-01-08T05:55:10;65.13;;;24.20;;
61907;SDS011;47864;52.526;19.672;2023-01-08T05:57:12;60.58;;;24.77;;
61907;SDS011;47864;52.526;19.672;2023-01-08T05:59:14;59.13;;;26.38;;
61907;SDS011;47864;52.526;19.672;2023-01-08T06:01:15;69.13;;;27.10;;
61907;SDS011;47864;52.526;19.672;2023-01-08T06:03:21;65.93;;;25.63;;
61907;SDS011;47864;52.526;19.672;2023-01-08T06:05:23;60.88;;;24.90;;
61907;SDS011;47864;52.526;19.672;2023-01-08T06:07:25;61.53;;;25.67;;
61907;SDS011;47864;52.526;19.672;2023-01-08T06:09:29;56.65;;;24.92;;
61907;SDS011;47864;52.526;19.672;2023-01-08T06:11:31;62.05;;;25.77;;
61907;SDS011;47864;52.526;19.672;2023-01-08T06:13:33;58.53;;;25.42;;
61907;SDS011;47864;52.526;19.672;2023-01-08T06:15:37;67.10;;;29.33;;
61907;SDS011;47864;52.526;19.672;2023-01-08T06:17:39;59.75;;;26.50;;
61907;SDS011;47864;52.526;19.672;2023-01-08T06:19:41;62.30;;;24.42;;
61907;SDS011;47864;52.526;19.672;2023-01-08T06:21:43;56.63;;;24.10;;
61907;SDS011;47864;52.526;19.672;2023-01-08T06:23:45;57.45;;;23.27;;
61907;SDS011;47864;52.526;19.672;2023-01-08T06:25:50;57.40;;;24.42;;
61907;SDS011;47864;52.526;19.672;2023-01-08T06:27:53;56.58;;;24.10;;
61907;SDS011;47864;52.526;19.672;2023-01-08T06:29:55;52.25;;;23.67;;
61907;SDS011;47864;52.526;19.672;2023-01-08T06:31:57;55.05;;;24.80;;
61907;SDS011;47864;52.526;19.672;2023-01-08T06:33:59;55.10;;;23.45;;
61907;SDS011;47864;52.526;19.672;2023-01-08T06:36:01;47.75;;;22.30;;
61907;SDS011;47864;52.526;19.672;2023-01-08T06:40:06;51.03;;;23.17;;
61907;SDS011;47864;52.526;19.672;2023-01-08T06:42:08;56.22;;;22.40;;
61907;SDS011;47864;52.526;19.672;2023-01-08T06:44:10;51.90;;;22.67;;
61907;SDS011;47864;52.526;19.672;2023-01-08T06:46:11;55.42;;;22.95;;
61907;SDS011;47864;52.526;19.672;2023-01-08T06:48:13;56.45;;;24.30;;
61907;SDS011;47864;52.526;19.672;2023-01-08T06:50:15;54.33;;;23.98;;
61907;SDS011;47864;52.526;19.672;2023-01-08T06:52:17;57.00;;;23.98;;
61907;SDS011;47864;52.526;19.672;2023-01-08T06:54:19;50.10;;;23.08;;
61907;SDS011;47864;52.526;19.672;2023-01-08T06:56:20;55.58;;;24.13;;
61907;SDS011;47864;52.526;19.672;2023-01-08T06:58:22;57.30;;;24.73;;
61907;SDS011;47864;52.526;19.672;2023-01-08T07:00:25;51.55;;;23.77;;
61907;SDS011;47864;52.526;19.672;2023-01-08T07:02:27;52.90;;;24.70;;
61907;SDS011;47864;52.526;19.672;2023-01-08T07:04:29;57.70;;;26.27;;
61907;SDS011;47864;52.526;19.672;2023-01-08T07:06:31;53.95;;;26.05;;
61907;SDS011;47864;52.526;19.672;2023-01-08T07:08:33;54.53;;;26.25;;
61907;SDS011;47864;52.526;19.672;2023-01-08T07:10:34;50.40;;;25.17;;
61907;SDS011;47864;52.526;19.672;2023-01-08T07:12:37;49.80;;;23.40;;
61907;SDS011;47864;52.526;19.672;2023-01-08T07:14:39;51.55;;;23.90;;
61907;SDS011;47864;52.526;19.672;2023-01-08T07:16:41;58.42;;;26.70;;
61907;SDS011;47864;52.526;19.672;2023-01-08T07:18:43;52.80;;;23.98;;
61907;SDS011;47864;52.526;19.672;2023-01-08T07:20:46;51.95;;;24.83;;
61907;SDS011;47864;52.526;19.672;2023-01-08T07:22:49;48.90;;;22.90;;
61907;SDS011;47864;52.526;19.672;2023-01-08T07:24:51;48.88;;;23.65;;
61907;SDS011;47864;52.526;19.672;2023-01-08T07:26:52;47.83;;;23.50;;
61907;SDS011;47864;52.526;19.672;2023-01-08T07:28:54;53.42;;;24.70;;
61907;SDS011;47864;52.526;19.672;2023-01-08T07:30:56;48.63;;;21.98;;
61907;SDS011;47864;52.526;19.672;2023-01-08T07:32:59;46.60;;;23.52;;
61907;SDS011;47864;52.526;19.672;2023-01-08T07:35:01;44.47;;;23.15;;
61907;SDS011;47864;52.526;19.672;2023-01-08T07:37:03;51.38;;;25.73;;
61907;SDS011;47864;52.526;19.672;2023-01-08T07:39:05;85.75;;;42.03;;
61907;SDS011;47864;52.526;19.672;2023-01-08T07:41:07;120.05;;;64.43;;
61907;SDS011;47864;52.526;19.672;2023-01-08T07:43:09;55.70;;;22.00;;
61907;SDS011;47864;52.526;19.672;2023-01-08T07:45:10;45.13;;;22.88;;
61907;SDS011;47864;52.526;19.672;2023-01-08T07:47:12;42.67;;;20.95;;
61907;SDS011;47864;52.526;19.672;2023-01-08T07:49:14;42.53;;;21.20;;
61907;SDS011;47864;52.526;19.672;2023-01-08T07:51:16;45.13;;;22.02;;
61907;SDS011;47864;52.526;19.672;2023-01-08T07:53:17;44.85;;;22.73;;
61907;SDS011;47864;52.526;19.672;2023-01-08T07:55:19;46.50;;;21.83;;
61907;SDS011;47864;52.526;19.672;2023-01-08T07:57:21;50.58;;;24.08;;
61907;SDS011;47864;52.526;19.672;2023-01-08T07:59:23;43.08;;;21.42;;
61907;SDS011;47864;52.526;19.672;2023-01-08T08:01:25;39.42;;;21.92;;
61907;SDS011;47864;52.526;19.672;2023-01-08T08:03:27;39.60;;;20.35;;
61907;SDS011;47864;52.526;19.672;2023-01-08T08:05:29;48.72;;;24.02;;
61907;SDS011;47864;52.526;19.672;2023-01-08T08:07:30;45.55;;;22.58;;
61907;SDS011;47864;52.526;19.672;2023-01-08T08:09:32;48.50;;;22.90;;
61907;SDS011;47864;52.526;19.672;2023-01-08T08:11:34;46.45;;;23.52;;
61907;SDS011;47864;52.526;19.672;2023-01-08T08:13:36;44.25;;;22.10;;
61907;SDS011;47864;52.526;19.672;2023-01-08T08:15:38;45.45;;;23.33;;
61907;SDS011;47864;52.526;19.672;2023-01-08T08:17:45;48.53;;;24.48;;
61907;SDS011;47864;52.526;19.672;2023-01-08T08:19:47;46.33;;;22.98;;
61907;SDS011;47864;52.526;19.672;2023-01-08T08:21:49;47.80;;;26.63;;
61907;SDS011;47864;52.526;19.672;2023-01-08T08:23:51;54.58;;;25.60;;
61907;SDS011;47864;52.526;19.672;2023-01-08T08:25:52;43.75;;;22.92;;
61907;SDS011;47864;52.526;19.672;2023-01-08T08:27:55;44.25;;;22.85;;
61907;SDS011;47864;52.526;19.672;2023-01-08T08:30:00;40.25;;;22.10;;
61907;SDS011;47864;52.526;19.672;2023-01-08T08:32:02;42.00;;;22.38;;
61907;SDS011;47864;52.526;19.672;2023-01-08T08:34:04;40.92;;;21.63;;
61907;SDS011;47864;52.526;19.672;2023-01-08T08:36:06;37.30;;;20.75;;
61907;SDS011;47864;52.526;19.672;2023-01-08T08:38:09;42.70;;;22.33;;
61907;SDS011;47864;52.526;19.672;2023-01-08T08:40:10;41.38;;;23.55;;
61907;SDS011;47864;52.526;19.672;2023-01-08T08:42:13;51.20;;;27.92;;
61907;SDS011;47864;52.526;19.672;2023-01-08T08:44:15;41.42;;;22.15;;
61907;SDS011;47864;52.526;19.672;2023-01-08T08:46:17;44.33;;;24.48;;
61907;SDS011;47864;52.526;19.672;2023-01-08T08:48:18;40.28;;;22.73;;
61907;SDS011;47864;52.526;19.672;2023-01-08T08:50:20;43.22;;;23.02;;
61907;SDS011;47864;52.526;19.672;2023-01-08T08:52:23;41.83;;;22.88;;
61907;SDS011;47864;52.526;19.672;2023-01-08T08:54:24;41.35;;;23.02;;
61907;SDS011;47864;52.526;19.672;2023-01-08T08:56:26;43.72;;;22.65;;
61907;SDS011;47864;52.526;19.672;2023-01-08T08:58:28;41.38;;;23.33;;
61907;SDS011;47864;52.526;19.672;2023-01-08T09:00:29;39.85;;;23.33;;
61907;SDS011;47864;52.526;19.672;2023-01-08T09:02:31;38.53;;;20.20;;
61907;SDS011;47864;52.526;19.672;2023-01-08T09:04:33;38.92;;;22.20;;
61907;SDS011;47864;52.526;19.672;2023-01-08T09:06:35;39.33;;;21.83;;
61907;SDS011;47864;52.526;19.672;2023-01-08T09:08:37;37.45;;;21.25;;
61907;SDS011;47864;52.526;19.672;2023-01-08T09:10:39;40.50;;;22.13;;
61907;SDS011;47864;52.526;19.672;2023-01-08T09:12:41;43.88;;;23.40;;
61907;SDS011;47864;52.526;19.672;2023-01-08T09:14:43;37.13;;;22.10;;
61907;SDS011;47864;52.526;19.672;2023-01-08T09:16:45;40.20;;;20.83;;
61907;SDS011;47864;52.526;19.672;2023-01-08T09:18:47;40.65;;;21.15;;
61907;SDS011;47864;52.526;19.672;2023-01-08T09:20:49;38.15;;;21.27;;
61907;SDS011;47864;52.526;19.672;2023-01-08T09:22:51;38.42;;;22.40;;
61907;SDS011;47864;52.526;19.672;2023-01-08T09:24:53;38.40;;;23.58;;
61907;SDS011;47864;52.526;19.672;2023-01-08T09:26:55;39.72;;;22.75;;
61907;SDS011;47864;52.526;19.672;2023-01-08T09:28:57;42.88;;;25.10;;
61907;SDS011;47864;52.526;19.672;2023-01-08T09:31:02;44.08;;;24.35;;
61907;SDS011;47864;52.526;19.672;2023-01-08T09:33:04;39.90;;;24.15;;
61907;SDS011;47864;52.526;19.672;2023-01-08T09:35:06;40.72;;;24.42;;
61907;SDS011;47864;52.526;19.672;2023-01-08T09:37:08;35.20;;;22.20;;
61907;SDS011;47864;52.526;19.672;2023-01-08T09:39:10;40.83;;;22.70;;
61907;SDS011;47864;52.526;19.672;2023-01-08T09:41:15;41.85;;;24.38;;
61907;SDS011;47864;52.526;19.672;2023-01-08T09:43:19;45.42;;;24.98;;
61907;SDS011;47864;52.526;19.672;2023-01-08T09:45:25;39.55;;;23.25;;
61907;SDS011;47864;52.526;19.672;2023-01-08T09:47:30;40.63;;;24.85;;
61907;SDS011;47864;52.526;19.672;2023-01-08T09:49:41;43.20;;;23.85;;
61907;SDS011;47864;52.526;19.672;2023-01-08T09:51:45;49.35;;;28.67;;
61907;SDS011;47864;52.526;19.672;2023-01-08T09:53:49;53.50;;;29.70;;
61907;SDS011;47864;52.526;19.672;2023-01-08T09:55:55;44.28;;;24.63;;
61907;SDS011;47864;52.526;19.672;2023-01-08T09:58:22;39.15;;;22.50;;
61907;SDS011;47864;52.526;19.672;2023-01-08T10:00:31;47.45;;;25.85;;
61907;SDS011;47864;52.526;19.672;2023-01-08T10:02:34;46.13;;;25.17;;
61907;SDS011;47864;52.526;19.672;2023-01-08T10:04:38;38.03;;;22.48;;
61907;SDS011;47864;52.526;19.672;2023-01-08T10:06:40;38.75;;;23.88;;
61907;SDS011;47864;52.526;19.672;2023-01-08T10:08:49;40.80;;;23.75;;
61907;SDS011;47864;52.526;19.672;2023-01-08T10:10:52;43.78;;;24.98;;
61907;SDS011;47864;52.526;19.672;2023-01-08T10:12:54;68.60;;;47.58;;
61907;SDS011;47864;52.526;19.672;2023-01-08T10:15:04;38.65;;;25.23;;
61907;SDS011;47864;52.526;19.672;2023-01-08T10:19:38;40.55;;;24.10;;
61907;SDS011;47864;52.526;19.672;2023-01-08T10:21:39;64.95;;;41.65;;
61907;SDS011;47864;52.526;19.672;2023-01-08T10:23:48;63.55;;;32.42;;
61907;SDS011;47864;52.526;19.672;2023-01-08T10:28:00;48.28;;;28.67;;
61907;SDS011;47864;52.526;19.672;2023-01-08T10:30:03;42.50;;;25.83;;
61907;SDS011;47864;52.526;19.672;2023-01-08T10:32:07;86.10;;;40.20;;
61907;SDS011;47864;52.526;19.672;2023-01-08T10:34:20;47.97;;;27.88;;
61907;SDS011;47864;52.526;19.672;2023-01-08T10:36:42;58.30;;;30.20;;
61907;SDS011;47864;52.526;19.672;2023-01-08T10:38:51;67.28;;;31.33;;
61907;SDS011;47864;52.526;19.672;2023-01-08T10:41:02;83.22;;;39.30;;
61907;SDS011;47864;52.526;19.672;2023-01-08T10:43:16;66.00;;;35.05;;
61907;SDS011;47864;52.526;19.672;2023-01-08T10:45:21;173.23;;;56.10;;
61907;SDS011;47864;52.526;19.672;2023-01-08T10:47:26;53.60;;;27.45;;
61907;SDS011;47864;52.526;19.672;2023-01-08T10:49:32;49.78;;;27.17;;
61907;SDS011;47864;52.526;19.672;2023-01-08T10:51:37;74.80;;;35.22;;
61907;SDS011;47864;52.526;19.672;2023-01-08T10:53:50;80.97;;;34.78;;
61907;SDS011;47864;52.526;19.672;2023-01-08T10:55:56;55.03;;;28.88;;
61907;SDS011;47864;52.526;19.672;2023-01-08T10:57:59;87.93;;;39.03;;
61907;SDS011;47864;52.526;19.672;2023-01-08T11:00:03;56.10;;;28.58;;
61907;SDS011;47864;52.526;19.672;2023-01-08T11:02:10;42.75;;;24.63;;
61907;SDS011;47864;52.526;19.672;2023-01-08T11:04:48;55.60;;;31.27;;
61907;SDS011;47864;52.526;19.672;2023-01-08T11:06:52;63.08;;;29.48;;
61907;SDS011;47864;52.526;19.672;2023-01-08T11:08:55;65.00;;;29.77;;
61907;SDS011;47864;52.526;19.672;2023-01-08T11:11:00;48.70;;;27.00;;
61907;SDS011;47864;52.526;19.672;2023-01-08T11:13:03;54.13;;;25.75;;
61907;SDS011;47864;52.526;19.672;2023-01-08T11:15:56;40.22;;;23.23;;
61907;SDS011;47864;52.526;19.672;2023-01-08T11:17:39;38.08;;;22.13;;
61907;SDS011;47864;52.526;19.672;2023-01-08T11:19:41;42.25;;;24.45;;
61907;SDS011;47864;52.526;19.672;2023-01-08T11:21:42;37.38;;;21.98;;
61907;SDS011;47864;52.526;19.672;2023-01-08T11:24:18;32.92;;;20.80;;
61907;SDS011;47864;52.526;19.672;2023-01-08T11:26:24;34.13;;;21.58;;
61907;SDS011;47864;52.526;19.672;2023-01-08T11:28:41;42.00;;;21.70;;
61907;SDS011;47864;52.526;19.672;2023-01-08T11:30:54;58.38;;;30.50;;
61907;SDS011;47864;52.526;19.672;2023-01-08T11:33:03;34.22;;;19.33;;
61907;SDS011;47864;52.526;19.672;2023-01-08T11:37:35;38.97;;;22.52;;
61907;SDS011;47864;52.526;19.672;2023-01-08T11:39:39;39.00;;;21.52;;
61907;SDS011;47864;52.526;19.672;2023-01-08T11:41:44;36.92;;;22.02;;
61907;SDS011;47864;52.526;19.672;2023-01-08T11:44:22;37.03;;;21.45;;
61907;SDS011;47864;52.526;19.672;2023-01-08T11:56:09;38.60;;;22.10;;
61907;SDS011;47864;52.526;19.672;2023-01-08T11:58:29;37.92;;;23.55;;
61907;SDS011;47864;52.526;19.672;2023-01-08T12:00:52;31.98;;;18.95;;
61907;SDS011;47864;52.526;19.672;2023-01-08T12:02:56;32.00;;;18.65;;
61907;SDS011;47864;52.526;19.672;2023-01-08T12:14:42;33.10;;;18.70;;
61907;SDS011;47864;52.526;19.672;2023-01-08T12:25:56;81.32;;;33.83;;
61907;SDS011;47864;52.526;19.672;2023-01-08T12:33:28;226.25;;;95.97;;
61907;SDS011;47864;52.526;19.672;2023-01-08T12:35:49;201.43;;;59.80;;
61907;SDS011;47864;52.526;19.672;2023-01-08T12:38:04;161.18;;;59.72;;
61907;SDS011;47864;52.526;19.672;2023-01-08T12:40:17;170.98;;;68.57;;
61907;SDS011;47864;52.526;19.672;2023-01-08T12:42:22;217.98;;;65.97;;
61907;SDS011;47864;52.526;19.672;2023-01-08T12:44:28;282.65;;;87.43;;
61907;SDS011;47864;52.526;19.672;2023-01-08T12:46:35;182.65;;;73.95;;
61907;SDS011;47864;52.526;19.672;2023-01-08T12:48:38;100.07;;;41.13;;